createdAt,value
2023-06-10T00:02:12.533Z,20.64
2023-06-10T00:04:38.967Z,20.38
2023-06-10T00:07:05.350Z,20.44
2023-06-10T00:09:31.704Z,20.61
2023-06-10T00:11:58.105Z,20.53
2023-06-10T00:14:24.441Z,20.55
2023-06-10T00:16:50.866Z,20.51
2023-06-10T00:19:17.258Z,20.47
2023-06-10T00:21:43.612Z,20.65
2023-06-10T00:24:10.038Z,20.75
2023-06-10T00:26:36.398Z,20.87
2023-06-10T00:29:02.742Z,20.86
2023-06-10T00:31:29.107Z,20.72
2023-06-10T00:33:55.490Z,20.81
2023-06-10T00:36:21.843Z,20.91
2023-06-10T00:38:48.196Z,20.61
2023-06-10T00:41:14.554Z,20.52
2023-06-10T00:43:40.898Z,20.65
2023-06-10T00:46:07.283Z,20.61
2023-06-10T00:48:33.716Z,20.49
2023-06-10T00:51:00.061Z,20.51
2023-06-10T00:53:26.410Z,20.62
2023-06-10T00:55:52.799Z,20.15
2023-06-10T00:58:19.151Z,20.56
2023-06-10T01:00:45.506Z,20.59
2023-06-10T01:03:12.008Z,20.20
2023-06-10T01:05:38.397Z,20.33
2023-06-10T01:08:04.752Z,20.44
2023-06-10T01:10:31.134Z,20.47
2023-06-10T01:12:57.489Z,20.31
2023-06-10T01:15:23.849Z,20.38
2023-06-10T01:17:50.467Z,20.35
2023-06-10T01:20:16.824Z,20.17
2023-06-10T01:22:43.171Z,20.36
2023-06-10T01:25:09.849Z,20.52
2023-06-10T01:27:36.368Z,20.47
2023-06-10T01:30:02.712Z,20.19
2023-06-10T01:32:29.107Z,20.36
2023-06-10T01:34:55.501Z,20.02
2023-06-10T01:37:21.834Z,20.09
2023-06-10T01:39:48.449Z,19.94
2023-06-10T01:42:14.793Z,19.90
2023-06-10T01:44:41.144Z,19.96
2023-06-10T01:47:07.553Z,19.60
2023-06-10T01:49:33.909Z,19.66
2023-06-10T01:52:00.270Z,19.92
2023-06-10T01:54:26.647Z,20.01
2023-06-10T01:56:52.991Z,19.98
2023-06-10T01:59:19.334Z,20.10
2023-06-10T02:01:45.946Z,20.06
2023-06-10T02:04:12.282Z,20.21
2023-06-10T02:06:38.626Z,20.18
2023-06-10T02:09:04.985Z,19.99
2023-06-10T02:11:31.329Z,19.98
2023-06-10T02:13:57.654Z,19.94
2023-06-10T02:16:24.069Z,20.04
2023-06-10T02:18:50.471Z,19.89
2023-06-10T02:21:16.827Z,20.05
2023-06-10T02:23:43.279Z,19.99
2023-06-10T02:26:09.691Z,20.17
2023-06-10T02:28:36.135Z,20.14
2023-06-10T02:31:02.510Z,20.11
2023-06-10T02:33:28.877Z,20.09
2023-06-10T02:35:55.237Z,20.11
2023-06-10T02:38:21.615Z,20.04
2023-06-10T02:40:47.964Z,19.75
2023-06-10T02:43:14.311Z,19.76
2023-06-10T02:45:40.677Z,19.54
2023-06-10T02:48:07.050Z,19.63
2023-06-10T02:50:33.397Z,19.86
2023-06-10T02:52:59.771Z,19.71
2023-06-10T02:55:26.101Z,19.90
2023-06-10T02:57:52.441Z,19.63
2023-06-10T03:00:18.887Z,19.72
2023-06-10T03:02:45.397Z,19.63
2023-06-10T03:05:12.353Z,19.56
2023-06-10T03:07:38.962Z,19.79
2023-06-10T03:10:05.336Z,19.85
2023-06-10T03:12:31.681Z,19.73
2023-06-10T03:14:58.065Z,19.54
2023-06-10T03:17:24.523Z,19.71
2023-06-10T03:19:51.002Z,19.77
2023-06-10T03:22:17.394Z,19.60
2023-06-10T03:24:43.741Z,19.68
2023-06-10T03:27:10.077Z,19.69
2023-06-10T03:29:36.486Z,19.79
2023-06-10T03:32:02.831Z,19.60
2023-06-10T03:34:29.176Z,19.64
2023-06-10T03:36:55.531Z,19.73
2023-06-10T03:39:21.866Z,19.61
2023-06-10T03:41:48.211Z,19.55
2023-06-10T03:44:14.564Z,19.63
2023-06-10T03:46:40.889Z,19.62
2023-06-10T03:49:07.257Z,19.62
2023-06-10T03:51:33.627Z,19.47
2023-06-10T03:53:59.983Z,19.56
2023-06-10T03:56:26.334Z,19.53
2023-06-10T03:58:52.798Z,19.56
2023-06-10T04:01:20.255Z,19.49
2023-06-10T04:03:46.590Z,19.39
2023-06-10T04:06:13.010Z,19.41
2023-06-10T04:08:39.479Z,19.48
2023-06-10T04:11:05.833Z,19.35
2023-06-10T04:13:32.204Z,19.24
2023-06-10T04:15:58.571Z,19.36
2023-06-10T04:18:24.956Z,19.23
2023-06-10T04:20:51.336Z,19.38
2023-06-10T04:23:17.686Z,19.27
2023-06-10T04:25:44.048Z,19.24
2023-06-10T04:28:10.431Z,19.20
2023-06-10T04:30:36.795Z,19.19
2023-06-10T04:33:03.183Z,18.92
2023-06-10T04:35:29.651Z,18.89
2023-06-10T04:37:56.000Z,18.78
2023-06-10T04:40:22.345Z,18.95
2023-06-10T04:42:48.703Z,18.85
2023-06-10T04:45:15.051Z,18.77
2023-06-10T04:47:41.644Z,18.77
2023-06-10T04:50:08.058Z,18.72
2023-06-10T04:52:34.399Z,18.68
2023-06-10T04:55:00.743Z,18.65
2023-06-10T04:57:27.237Z,18.68
2023-06-10T04:59:53.629Z,18.60
2023-06-10T05:02:20.071Z,18.70
2023-06-10T05:04:46.500Z,18.78
2023-06-10T05:07:12.840Z,18.86
2023-06-10T05:09:39.179Z,18.76
2023-06-10T05:12:05.539Z,19.01
2023-06-10T05:14:31.883Z,19.13
2023-06-10T05:16:58.232Z,19.21
2023-06-10T05:19:24.590Z,19.02
2023-06-10T05:21:50.950Z,19.06
2023-06-10T05:24:17.465Z,19.13
2023-06-10T05:26:44.042Z,19.09
2023-06-10T05:29:10.400Z,18.96
2023-06-10T05:31:36.904Z,19.07
2023-06-10T05:34:03.328Z,18.90
2023-06-10T05:36:29.679Z,18.77
2023-06-10T05:38:56.025Z,18.73
2023-06-10T05:41:22.435Z,18.89
2023-06-10T05:43:48.826Z,18.79
2023-06-10T05:46:15.272Z,18.85
2023-06-10T05:48:41.687Z,18.51
2023-06-10T05:51:08.044Z,18.81
2023-06-10T05:53:34.394Z,18.95
2023-06-10T05:56:00.808Z,18.56
2023-06-10T05:58:27.150Z,18.73
2023-06-10T06:00:53.515Z,18.84
2023-06-10T06:03:20.046Z,19.08
2023-06-10T06:05:46.524Z,18.94
2023-06-10T06:08:12.872Z,18.91
2023-06-10T06:10:39.268Z,18.84
2023-06-10T06:13:05.603Z,18.80
2023-06-10T06:15:31.942Z,19.00
2023-06-10T06:17:58.318Z,18.82
2023-06-10T06:20:24.714Z,18.99
2023-06-10T06:22:51.123Z,19.38
2023-06-10T06:25:17.561Z,19.24
2023-06-10T06:27:43.960Z,18.86
2023-06-10T06:30:10.326Z,18.93
2023-06-10T06:32:36.778Z,19.00
2023-06-10T06:35:03.132Z,18.97
2023-06-10T06:37:29.504Z,18.96
2023-06-10T06:39:55.924Z,18.98
2023-06-10T06:42:22.286Z,18.89
2023-06-10T06:44:48.631Z,18.83
2023-06-10T06:47:15.171Z,19.07
2023-06-10T06:49:41.551Z,19.33
2023-06-10T06:52:07.908Z,18.96
2023-06-10T06:54:34.277Z,19.11
2023-06-10T06:57:00.645Z,19.28
2023-06-10T06:59:26.990Z,19.20
2023-06-10T07:01:53.385Z,19.38
2023-06-10T07:04:19.799Z,18.67
2023-06-10T07:06:46.155Z,18.90
2023-06-10T07:09:12.527Z,19.01
2023-06-10T07:11:38.876Z,19.45
2023-06-10T07:14:05.238Z,19.75
2023-06-10T07:16:31.683Z,20.03
2023-06-10T07:18:58.073Z,19.82
2023-06-10T07:21:24.435Z,19.61
2023-06-10T07:23:50.812Z,19.67
2023-06-10T07:26:17.200Z,19.47
2023-06-10T07:28:43.679Z,19.31
2023-06-10T07:31:10.104Z,19.38
2023-06-10T07:33:36.446Z,19.52
2023-06-10T07:36:02.807Z,19.67
2023-06-10T07:38:29.260Z,19.54
2023-06-10T07:40:55.604Z,19.60
2023-06-10T07:43:21.993Z,19.22
2023-06-10T07:45:48.358Z,19.55
2023-06-10T07:48:14.694Z,19.32
2023-06-10T07:50:41.048Z,19.63
2023-06-10T07:53:07.470Z,19.56
2023-06-10T07:55:34.043Z,19.80
2023-06-10T07:58:00.435Z,19.58
2023-06-10T08:00:26.810Z,19.74
2023-06-10T08:02:53.298Z,19.67
2023-06-10T08:05:19.872Z,19.85
2023-06-10T08:07:46.306Z,19.92
2023-06-10T08:10:12.669Z,19.99
2023-06-10T08:12:39.042Z,20.27
2023-06-10T08:15:05.546Z,20.06
2023-06-10T08:17:32.122Z,20.15
2023-06-10T08:19:58.492Z,20.27
2023-06-10T08:22:24.874Z,20.16
2023-06-10T08:27:17.638Z,20.38
2023-06-10T08:29:44.062Z,20.36
2023-06-10T08:32:10.431Z,20.09
2023-06-10T08:34:36.809Z,19.79
2023-06-10T08:37:03.173Z,19.75
2023-06-10T08:39:29.529Z,20.04
2023-06-10T08:41:55.870Z,20.36
2023-06-10T08:44:22.236Z,20.10
2023-06-10T08:46:48.588Z,20.27
2023-06-10T08:49:15.154Z,20.13
2023-06-10T08:51:41.580Z,20.44
2023-06-10T08:54:07.940Z,20.41
2023-06-10T08:56:34.290Z,19.99
2023-06-10T08:59:00.692Z,20.26
2023-06-10T09:01:27.077Z,20.19
2023-06-10T09:03:53.501Z,20.06
2023-06-10T09:06:19.888Z,20.21
2023-06-10T09:08:46.262Z,20.39
2023-06-10T09:11:12.615Z,20.60
2023-06-10T09:13:39.010Z,20.61
2023-06-10T09:16:05.534Z,20.35
2023-06-10T09:18:31.925Z,20.92
2023-06-10T09:20:58.307Z,21.13
2023-06-10T09:23:24.848Z,21.02
2023-06-10T09:25:51.199Z,20.91
2023-06-10T09:28:17.568Z,20.85
2023-06-10T09:30:43.921Z,21.05
2023-06-10T09:33:10.348Z,21.26
2023-06-10T09:35:36.783Z,21.17
2023-06-10T09:38:03.368Z,21.54
2023-06-10T09:40:29.767Z,21.60
2023-06-10T09:42:56.129Z,21.73
2023-06-10T09:45:22.469Z,22.46
2023-06-10T09:47:48.863Z,22.80
2023-06-10T09:50:15.462Z,22.50
2023-06-10T09:52:42.053Z,22.71
2023-06-10T09:55:08.462Z,22.78
2023-06-10T09:57:35.150Z,22.88
2023-06-10T10:00:01.590Z,22.85
2023-06-10T10:02:27.934Z,23.16
2023-06-10T10:04:54.409Z,22.95
2023-06-10T10:07:20.788Z,22.78
2023-06-10T10:09:47.149Z,22.54
2023-06-10T10:12:13.503Z,22.74
2023-06-10T10:14:39.836Z,23.01
2023-06-10T10:17:06.290Z,23.09
2023-06-10T10:19:32.780Z,23.15
2023-06-10T10:21:59.124Z,22.74
2023-06-10T10:24:25.533Z,22.33
2023-06-10T10:26:51.984Z,22.89
2023-06-10T10:29:18.358Z,22.71
2023-06-10T10:31:44.703Z,22.98
2023-06-10T10:34:11.171Z,22.81
2023-06-10T10:36:37.653Z,22.76
2023-06-10T10:39:04.002Z,22.70
2023-06-10T10:41:30.351Z,22.81
2023-06-10T10:43:56.739Z,23.28
2023-06-10T10:46:23.271Z,23.09
2023-06-10T10:48:49.671Z,22.87
2023-06-10T10:51:16.009Z,23.01
2023-06-10T10:53:42.413Z,22.74
2023-06-10T10:56:08.812Z,23.15
2023-06-10T10:58:35.169Z,23.41
2023-06-10T11:01:01.598Z,23.17
2023-06-10T11:03:28.285Z,23.78
2023-06-10T11:05:54.783Z,23.42
2023-06-10T11:08:21.164Z,23.38
2023-06-10T11:10:47.618Z,23.43
2023-06-10T11:13:13.970Z,23.39
2023-06-10T11:15:40.318Z,23.19
2023-06-10T11:18:06.768Z,23.30
2023-06-10T11:20:33.287Z,23.60
2023-06-10T11:22:59.688Z,23.90
2023-06-10T11:25:26.072Z,24.14
2023-06-10T11:27:52.442Z,23.89
2023-06-10T11:30:18.828Z,24.31
2023-06-10T11:32:45.301Z,24.37
2023-06-10T11:35:12.145Z,24.73
2023-06-10T11:37:38.696Z,24.73
2023-06-10T11:40:05.103Z,24.89
2023-06-10T11:42:31.457Z,24.91
2023-06-10T11:44:57.818Z,24.67
2023-06-10T11:47:24.217Z,24.64
2023-06-10T11:49:52.051Z,24.79
2023-06-10T11:52:18.496Z,25.21
2023-06-10T11:54:44.845Z,25.19
2023-06-10T11:57:11.211Z,25.21
2023-06-10T11:59:37.545Z,24.87
2023-06-10T12:02:03.895Z,24.44
2023-06-10T12:04:30.244Z,24.65
2023-06-10T12:06:56.568Z,24.18
2023-06-10T12:09:25.872Z,24.10
2023-06-10T12:11:53.025Z,24.24
2023-06-10T12:14:19.918Z,24.18
2023-06-10T12:16:46.300Z,24.51
2023-06-10T12:19:12.643Z,24.49
2023-06-10T12:21:39.013Z,24.73
2023-06-10T12:24:05.418Z,24.62
2023-06-10T12:26:31.855Z,24.76
2023-06-10T12:28:58.196Z,24.40
2023-06-10T12:31:24.593Z,24.43
2023-06-10T12:33:50.951Z,24.42
2023-06-10T12:36:17.312Z,24.47
2023-06-10T12:38:43.693Z,23.99
2023-06-10T12:41:10.035Z,24.54
2023-06-10T12:43:36.391Z,24.59
2023-06-10T12:46:02.794Z,24.32
2023-06-10T12:48:31.111Z,24.31
2023-06-10T12:50:57.679Z,24.33
2023-06-10T12:53:24.089Z,24.66
2023-06-10T12:55:50.458Z,24.42
2023-06-10T12:58:16.818Z,23.98
2023-06-10T13:00:43.180Z,23.78
2023-06-10T13:03:09.578Z,23.77
2023-06-10T13:05:35.947Z,24.07
2023-06-10T13:08:02.322Z,23.61
2023-06-10T13:10:28.671Z,23.79
2023-06-10T13:12:55.018Z,24.13
2023-06-10T13:15:21.378Z,24.44
2023-06-10T13:17:47.732Z,24.46
2023-06-10T13:20:14.091Z,24.69
2023-06-10T13:22:40.491Z,24.64
2023-06-10T13:25:06.839Z,24.45
2023-06-10T13:27:33.194Z,24.58
2023-06-10T13:29:59.571Z,24.24
2023-06-10T13:32:25.969Z,24.65
2023-06-10T13:34:52.360Z,24.40
2023-06-10T13:37:18.727Z,24.33
2023-06-10T13:39:45.071Z,24.20
2023-06-10T13:42:11.420Z,24.50
2023-06-10T13:44:37.814Z,24.65
2023-06-10T13:47:04.304Z,24.11
2023-06-10T13:49:30.809Z,23.92
2023-06-10T13:51:57.297Z,24.11
2023-06-10T13:54:23.646Z,24.43
2023-06-10T13:56:49.999Z,24.45
2023-06-10T13:59:16.364Z,24.44
2023-06-10T14:01:42.773Z,24.34
2023-06-10T14:04:09.247Z,24.38
2023-06-10T14:06:35.672Z,24.56
2023-06-10T14:09:02.020Z,24.34
2023-06-10T14:11:28.357Z,24.21
2023-06-10T14:13:54.719Z,24.42
2023-06-10T14:16:21.086Z,24.23
2023-06-10T14:18:47.436Z,24.29
2023-06-10T14:21:13.798Z,24.07
2023-06-10T14:23:40.160Z,24.45
2023-06-10T14:26:06.540Z,24.58
2023-06-10T14:28:32.947Z,24.28
2023-06-10T14:30:59.297Z,24.42
2023-06-10T14:33:25.691Z,24.57
2023-06-10T14:35:52.082Z,24.68
2023-06-10T14:38:18.433Z,24.57
2023-06-10T14:40:44.799Z,24.37
2023-06-10T14:43:11.157Z,24.51
2023-06-10T14:45:37.513Z,24.48
2023-06-10T14:48:03.922Z,24.69
2023-06-10T14:50:30.341Z,24.55
2023-06-10T14:52:56.700Z,24.53
2023-06-10T14:55:23.044Z,24.27
2023-06-10T14:57:49.430Z,24.47
2023-06-10T15:00:15.789Z,24.43
2023-06-10T15:02:42.199Z,24.58
2023-06-10T15:05:08.863Z,24.57
2023-06-10T15:07:35.427Z,24.26
2023-06-10T15:10:01.793Z,24.55
2023-06-10T15:12:28.207Z,24.54
2023-06-10T15:14:54.563Z,24.47
2023-06-10T15:17:20.917Z,24.46
2023-06-10T15:19:47.316Z,24.56
2023-06-10T15:22:13.667Z,24.15
2023-06-10T15:24:40.011Z,24.28
2023-06-10T15:27:06.371Z,24.36
2023-06-10T15:29:32.719Z,24.06
2023-06-10T15:31:59.079Z,24.12
2023-06-10T15:34:25.505Z,24.18
2023-06-10T15:36:51.841Z,24.33
2023-06-10T15:39:18.175Z,24.33
2023-06-10T15:41:44.546Z,24.17
2023-06-10T15:44:10.891Z,24.26
2023-06-10T15:46:37.335Z,24.24
2023-06-10T15:49:03.865Z,24.31
2023-06-10T15:51:30.266Z,24.34
2023-06-10T15:53:56.605Z,24.47
2023-06-10T15:56:22.970Z,24.56
2023-06-10T15:58:49.364Z,24.24
2023-06-10T16:01:15.751Z,24.35
2023-06-10T16:03:42.276Z,24.16
2023-06-10T16:06:08.666Z,24.19
2023-06-10T16:08:35.004Z,24.20
2023-06-10T16:11:01.393Z,24.34
2023-06-10T16:13:27.740Z,24.21
2023-06-10T16:15:54.097Z,24.03
2023-06-10T16:18:20.551Z,24.08
2023-06-10T16:20:46.906Z,24.20
2023-06-10T16:23:13.251Z,24.30
2023-06-10T16:25:40.291Z,24.56
2023-06-10T16:28:06.871Z,24.31
2023-06-10T16:30:33.200Z,24.10
2023-06-10T16:32:59.624Z,24.18
2023-06-10T16:35:26.009Z,24.37
2023-06-10T16:37:52.365Z,24.42
2023-06-10T16:40:18.800Z,24.36
2023-06-10T16:42:45.141Z,24.45
2023-06-10T16:45:11.710Z,24.30
2023-06-10T16:47:38.455Z,24.38
2023-06-10T16:50:04.805Z,24.43
2023-06-10T16:52:31.143Z,24.43
2023-06-10T16:54:57.507Z,24.32
2023-06-10T16:57:23.874Z,24.57
2023-06-10T16:59:50.231Z,24.61
2023-06-10T17:02:16.590Z,24.59
2023-06-10T17:04:42.937Z,24.61
2023-06-10T17:07:09.285Z,24.33
2023-06-10T17:09:35.646Z,24.23
2023-06-10T17:12:01.998Z,24.60
2023-06-10T17:14:28.346Z,24.66
2023-06-10T17:16:54.737Z,24.37
2023-06-10T17:19:21.089Z,24.31
2023-06-10T17:21:47.443Z,24.18
2023-06-10T17:24:13.832Z,24.08
2023-06-10T17:26:40.220Z,24.09
2023-06-10T17:29:06.568Z,24.25
2023-06-10T17:31:32.971Z,24.39
2023-06-10T17:33:59.326Z,24.27
2023-06-10T17:36:25.690Z,24.28
2023-06-10T17:38:52.118Z,24.06
2023-06-10T17:41:18.499Z,24.09
2023-06-10T17:43:45.452Z,23.85
2023-06-10T17:46:12.089Z,24.23
2023-06-10T17:48:38.478Z,24.03
2023-06-10T17:51:04.833Z,24.09
2023-06-10T17:53:31.218Z,24.18
2023-06-10T17:55:59.570Z,24.19
2023-06-10T17:58:28.134Z,24.20
2023-06-10T18:00:54.495Z,23.92
2023-06-10T18:03:20.924Z,23.97
2023-06-10T18:05:47.342Z,23.94
2023-06-10T18:08:13.722Z,23.89
2023-06-10T18:10:40.079Z,23.97
2023-06-10T18:13:06.432Z,24.00
2023-06-10T18:15:35.166Z,23.96
2023-06-10T18:18:03.229Z,23.80
2023-06-10T18:20:29.619Z,23.82
2023-06-10T18:22:55.990Z,23.95
2023-06-10T18:25:22.371Z,23.98
2023-06-10T18:27:48.724Z,24.20
2023-06-10T18:30:15.091Z,24.27
2023-06-10T18:32:41.481Z,24.19
2023-06-10T18:35:08.021Z,24.16
2023-06-10T18:37:34.522Z,24.13
2023-06-10T18:40:00.879Z,23.99
2023-06-10T18:42:27.234Z,24.05
2023-06-10T18:44:53.597Z,24.06
2023-06-10T18:47:19.964Z,23.87
2023-06-10T18:49:46.335Z,23.84
2023-06-10T18:52:12.782Z,23.85
2023-06-10T18:54:39.160Z,23.85
2023-06-10T18:57:05.558Z,23.75
2023-06-10T18:59:31.956Z,23.76
2023-06-10T19:01:58.363Z,23.66
2023-06-10T19:04:24.733Z,23.52
2023-06-10T19:06:51.105Z,23.67
2023-06-10T19:09:17.457Z,23.45
2023-06-10T19:11:43.795Z,23.47
2023-06-10T19:14:10.165Z,23.50
2023-06-10T19:16:36.518Z,23.43
2023-06-10T19:19:02.856Z,23.49
2023-06-10T19:21:29.218Z,23.52
2023-06-10T19:23:55.642Z,23.37
2023-06-10T19:26:22.004Z,23.30
2023-06-10T19:28:48.459Z,23.34
2023-06-10T19:31:14.824Z,23.15
2023-06-10T19:33:41.624Z,23.18
2023-06-10T19:36:07.979Z,23.06
2023-06-10T19:38:34.338Z,23.06
2023-06-10T19:41:00.673Z,22.93
2023-06-10T19:43:27.023Z,22.60
2023-06-10T19:45:53.382Z,22.80
2023-06-10T19:48:19.788Z,22.90
2023-06-10T19:50:46.179Z,22.81
2023-06-10T19:53:12.588Z,22.89
2023-06-10T19:55:39.048Z,22.89
2023-06-10T19:58:05.447Z,22.80
2023-06-10T20:00:31.784Z,22.71
2023-06-10T20:02:58.275Z,22.74
2023-06-10T20:05:24.667Z,22.56
2023-06-10T20:07:51.053Z,22.52
2023-06-10T20:10:17.404Z,22.57
2023-06-10T20:12:43.779Z,22.50
2023-06-10T20:15:10.316Z,22.53
2023-06-10T20:17:36.946Z,22.52
2023-06-10T20:20:03.372Z,22.56
2023-06-10T20:22:29.728Z,22.65
2023-06-10T20:24:56.126Z,22.44
2023-06-10T20:27:22.625Z,22.11
2023-06-10T20:29:49.029Z,22.09
2023-06-10T20:32:15.442Z,22.10
2023-06-10T20:34:41.876Z,22.26
2023-06-10T20:37:08.218Z,22.06
2023-06-10T20:39:34.582Z,22.26
2023-06-10T20:42:00.985Z,22.48
2023-06-10T20:44:27.342Z,22.51
2023-06-10T20:46:53.680Z,22.43
2023-06-10T20:49:20.041Z,22.18
2023-06-10T20:51:46.388Z,22.25
2023-06-10T20:54:12.767Z,22.35
2023-06-10T20:56:39.176Z,22.39
2023-06-10T20:59:05.530Z,22.19
2023-06-10T21:01:31.940Z,21.95
2023-06-10T21:03:58.408Z,21.96
2023-06-10T21:06:24.783Z,22.23
2023-06-10T21:08:54.266Z,21.83
2023-06-10T21:11:20.633Z,22.07
2023-06-10T21:13:46.971Z,21.85
2023-06-10T21:16:13.395Z,21.92
2023-06-10T21:18:39.819Z,21.82
2023-06-10T21:21:06.177Z,21.96
2023-06-10T21:23:32.581Z,21.76
2023-06-10T21:25:58.976Z,21.78
2023-06-10T21:28:25.315Z,21.91
2023-06-10T21:30:51.655Z,21.92
2023-06-10T21:33:18.053Z,21.84
2023-06-10T21:35:44.395Z,21.85
2023-06-10T21:38:10.749Z,21.91
2023-06-10T21:40:37.127Z,21.51
2023-06-10T21:43:03.479Z,21.59
2023-06-10T21:45:29.821Z,21.47
2023-06-10T21:47:56.244Z,21.28
2023-06-10T21:50:22.623Z,21.44
2023-06-10T21:52:48.974Z,21.20
2023-06-10T21:55:15.546Z,21.39
2023-06-10T21:57:42.034Z,21.31
2023-06-10T22:00:08.435Z,21.12
2023-06-10T22:02:34.857Z,21.00
2023-06-10T22:05:01.222Z,21.26
2023-06-10T22:07:27.556Z,21.33
2023-06-10T22:09:53.954Z,21.47
2023-06-10T22:12:20.309Z,21.42
2023-06-10T22:14:46.707Z,21.51
2023-06-10T22:17:13.234Z,21.08
2023-06-10T22:19:39.841Z,21.33
2023-06-10T22:22:06.243Z,21.36
2023-06-10T22:24:32.607Z,21.06
2023-06-10T22:26:58.977Z,20.73
2023-06-10T22:29:25.342Z,20.61
2023-06-10T22:31:51.705Z,20.89
2023-06-10T22:34:18.055Z,20.82
2023-06-10T22:36:44.411Z,21.11
2023-06-10T22:39:10.782Z,21.16
2023-06-10T22:41:37.113Z,21.24
2023-06-10T22:44:03.462Z,21.13
2023-06-10T22:46:29.839Z,20.90
2023-06-10T22:48:56.270Z,20.75
2023-06-10T22:51:22.642Z,20.74
2023-06-10T22:53:49.019Z,21.01
2023-06-10T22:56:15.382Z,21.02
2023-06-10T22:58:41.781Z,20.93
2023-06-10T23:01:08.170Z,20.76
2023-06-10T23:03:34.540Z,20.64
2023-06-10T23:06:00.920Z,20.70
2023-06-10T23:08:27.283Z,20.73
2023-06-10T23:10:53.621Z,20.86
2023-06-10T23:13:19.985Z,20.75
2023-06-10T23:15:46.427Z,20.77
2023-06-10T23:18:12.829Z,20.91
2023-06-10T23:20:39.202Z,20.49
2023-06-10T23:23:05.556Z,20.45
2023-06-10T23:25:31.902Z,20.49
2023-06-10T23:27:58.256Z,20.87
2023-06-10T23:30:24.659Z,20.86
2023-06-10T23:32:51.120Z,20.58
2023-06-10T23:35:18.930Z,20.45
2023-06-10T23:37:45.362Z,20.61
2023-06-10T23:40:11.702Z,20.61
2023-06-10T23:42:38.063Z,20.46
2023-06-10T23:45:04.419Z,20.35
2023-06-10T23:47:31.965Z,20.32
2023-06-10T23:49:58.316Z,20.68
2023-06-10T23:52:24.694Z,20.65
2023-06-10T23:54:51.025Z,20.46
2023-06-10T23:57:17.380Z,20.38
2023-06-10T23:59:43.739Z,20.57
